sensor_id;sensor_type;location;lat;lon;timestamp;temperature;humidity
19920;DHT22;10122;50.074;19.920;2023-02-18T00:02:08;10.50;99.90
19920;DHT22;10122;50.074;19.920;2023-02-18T00:04:34;10.50;99.90
19920;DHT22;10122;50.074;19.920;2023-02-18T00:07:00;10.50;99.90
19920;DHT22;10122;50.074;19.920;2023-02-18T00:09:26;10.50;99.90
19920;DHT22;10122;50.074;19.920;2023-02-18T00:11:51;10.40;99.90
19920;DHT22;10122;50.074;19.920;2023-02-18T00:14:17;10.40;99.90
19920;DHT22;10122;50.074;19.920;2023-02-18T00:16:44;10.40;99.90
19920;DHT22;10122;50.074;19.920;2023-02-18T00:19:13;10.40;99.90
19920;DHT22;10122;50.074;19.920;2023-02-18T00:21:39;10.40;99.90
19920;DHT22;10122;50.074;19.920;2023-02-18T00:24:05;10.40;99.90
19920;DHT22;10122;50.074;19.920;2023-02-18T00:26:32;10.40;99.90
19920;DHT22;10122;50.074;19.920;2023-02-18T00:28:58;10.40;99.90
19920;DHT22;10122;50.074;19.920;2023-02-18T00:31:25;10.50;99.90
19920;DHT22;10122;50.074;19.920;2023-02-18T00:33:51;10.50;99.90
19920;DHT22;10122;50.074;19.920;2023-02-18T00:36:18;10.50;99.90
19920;DHT22;10122;50.074;19.920;2023-02-18T00:38:46;10.50;99.90
19920;DHT22;10122;50.074;19.920;2023-02-18T00:41:13;10.50;99.90
19920;DHT22;10122;50.074;19.920;2023-02-18T00:43:39;10.50;99.90
19920;DHT22;10122;50.074;19.920;2023-02-18T00:46:04;10.50;99.90
19920;DHT22;10122;50.074;19.920;2023-02-18T00:48:31;10.50;99.90
19920;DHT22;10122;50.074;19.920;2023-02-18T00:50:57;10.50;99.90
19920;DHT22;10122;50.074;19.920;2023-02-18T00:53:22;10.50;99.90
19920;DHT22;10122;50.074;19.920;2023-02-18T00:55:49;10.50;99.90
19920;DHT22;10122;50.074;19.920;2023-02-18T00:58:15;10.50;99.90
19920;DHT22;10122;50.074;19.920;2023-02-18T01:00:41;10.50;99.90
19920;DHT22;10122;50.074;19.920;2023-02-18T01:03:07;10.50;99.90
19920;DHT22;10122;50.074;19.920;2023-02-18T01:05:33;10.50;99.90
19920;DHT22;10122;50.074;19.920;2023-02-18T01:07:59;10.50;99.90
19920;DHT22;10122;50.074;19.920;2023-02-18T01:10:25;10.50;99.90
19920;DHT22;10122;50.074;19.920;2023-02-18T01:12:50;10.50;99.90
19920;DHT22;10122;50.074;19.920;2023-02-18T01:15:17;10.50;99.90
19920;DHT22;10122;50.074;19.920;2023-02-18T01:17:43;10.50;99.90
19920;DHT22;10122;50.074;19.920;2023-02-18T01:20:10;10.50;99.90
19920;DHT22;10122;50.074;19.920;2023-02-18T01:22:36;10.50;99.90
19920;DHT22;10122;50.074;19.920;2023-02-18T01:25:02;10.50;99.90
19920;DHT22;10122;50.074;19.920;2023-02-18T01:27:28;10.40;99.90
19920;DHT22;10122;50.074;19.920;2023-02-18T01:29:54;10.40;99.90
19920;DHT22;10122;50.074;19.920;2023-02-18T01:32:20;10.40;99.90
19920;DHT22;10122;50.074;19.920;2023-02-18T01:34:46;10.30;99.90
19920;DHT22;10122;50.074;19.920;2023-02-18T01:37:12;10.30;99.90
19920;DHT22;10122;50.074;19.920;2023-02-18T01:39:37;10.20;99.90
19920;DHT22;10122;50.074;19.920;2023-02-18T01:42:03;10.20;99.90
19920;DHT22;10122;50.074;19.920;2023-02-18T01:44:32;10.20;99.90
19920;DHT22;10122;50.074;19.920;2023-02-18T01:46:58;10.10;99.90
19920;DHT22;10122;50.074;19.920;2023-02-18T01:49:42;10.10;99.90
19920;DHT22;10122;50.074;19.920;2023-02-18T01:52:20;10.10;99.90
19920;DHT22;10122;50.074;19.920;2023-02-18T01:54:50;10.00;99.90
19920;DHT22;10122;50.074;19.920;2023-02-18T01:57:26;10.00;99.90
19920;DHT22;10122;50.074;19.920;2023-02-18T01:59:55;10.00;99.90
19920;DHT22;10122;50.074;19.920;2023-02-18T02:02:26;10.00;99.90
19920;DHT22;10122;50.074;19.920;2023-02-18T02:04:53;9.90;99.90
19920;DHT22;10122;50.074;19.920;2023-02-18T02:07:20;10.00;99.90
19920;DHT22;10122;50.074;19.920;2023-02-18T02:09:47;9.90;99.90
19920;DHT22;10122;50.074;19.920;2023-02-18T02:40:21;9.80;99.90
19920;DHT22;10122;50.074;19.920;2023-02-18T02:46:05;9.80;99.90
19920;DHT22;10122;50.074;19.920;2023-02-18T02:48:58;9.70;99.90
19920;DHT22;10122;50.074;19.920;2023-02-18T02:51:47;9.70;99.90
19920;DHT22;10122;50.074;19.920;2023-02-18T02:54:23;9.70;99.90
19920;DHT22;10122;50.074;19.920;2023-02-18T02:57:00;9.70;99.90
19920;DHT22;10122;50.074;19.920;2023-02-18T02:59:28;9.70;99.90
19920;DHT22;10122;50.074;19.920;2023-02-18T03:08:07;9.70;99.90
19920;DHT22;10122;50.074;19.920;2023-02-18T03:10:51;9.70;99.90
19920;DHT22;10122;50.074;19.920;2023-02-18T03:16:41;9.70;99.90
19920;DHT22;10122;50.074;19.920;2023-02-18T03:19:22;9.60;99.90
19920;DHT22;10122;50.074;19.920;2023-02-18T03:21:57;9.60;99.90
19920;DHT22;10122;50.074;19.920;2023-02-18T03:26:55;9.60;99.90
19920;DHT22;10122;50.074;19.920;2023-02-18T03:29:21;9.60;99.90
19920;DHT22;10122;50.074;19.920;2023-02-18T03:31:52;9.60;99.90
19920;DHT22;10122;50.074;19.920;2023-02-18T03:34:24;9.60;99.90
19920;DHT22;10122;50.074;19.920;2023-02-18T03:36:51;9.60;99.90
19920;DHT22;10122;50.074;19.920;2023-02-18T03:39:19;9.60;99.90
19920;DHT22;10122;50.074;19.920;2023-02-18T03:41:46;9.50;99.90
19920;DHT22;10122;50.074;19.920;2023-02-18T03:44:12;9.50;99.90
19920;DHT22;10122;50.074;19.920;2023-02-18T03:46:40;9.50;99.90
19920;DHT22;10122;50.074;19.920;2023-02-18T03:49:09;9.50;99.90
19920;DHT22;10122;50.074;19.920;2023-02-18T03:51:35;9.50;99.90
19920;DHT22;10122;50.074;19.920;2023-02-18T03:54:00;9.40;99.90
19920;DHT22;10122;50.074;19.920;2023-02-18T03:56:26;9.40;99.90
19920;DHT22;10122;50.074;19.920;2023-02-18T03:58:51;9.40;99.90
19920;DHT22;10122;50.074;19.920;2023-02-18T04:01:17;9.30;99.90
19920;DHT22;10122;50.074;19.920;2023-02-18T04:03:43;9.30;99.90
19920;DHT22;10122;50.074;19.920;2023-02-18T04:06:09;9.30;99.90
19920;DHT22;10122;50.074;19.920;2023-02-18T04:08:35;9.30;99.90
19920;DHT22;10122;50.074;19.920;2023-02-18T04:11:01;9.30;99.90
19920;DHT22;10122;50.074;19.920;2023-02-18T04:13:27;9.20;99.90
19920;DHT22;10122;50.074;19.920;2023-02-18T04:15:52;9.20;99.90
19920;DHT22;10122;50.074;19.920;2023-02-18T04:18:19;9.20;99.90
19920;DHT22;10122;50.074;19.920;2023-02-18T04:20:44;9.20;99.90
19920;DHT22;10122;50.074;19.920;2023-02-18T04:23:13;9.20;99.90
19920;DHT22;10122;50.074;19.920;2023-02-18T04:25:38;9.10;99.90
19920;DHT22;10122;50.074;19.920;2023-02-18T04:28:04;9.10;99.90
19920;DHT22;10122;50.074;19.920;2023-02-18T04:30:30;9.10;99.90
19920;DHT22;10122;50.074;19.920;2023-02-18T04:32:56;9.10;99.90
19920;DHT22;10122;50.074;19.920;2023-02-18T04:35:23;9.00;99.90
19920;DHT22;10122;50.074;19.920;2023-02-18T04:37:49;9.00;99.90
19920;DHT22;10122;50.074;19.920;2023-02-18T04:40:15;9.00;99.90
19920;DHT22;10122;50.074;19.920;2023-02-18T04:42:41;9.00;99.90
19920;DHT22;10122;50.074;19.920;2023-02-18T04:45:07;9.00;99.90
19920;DHT22;10122;50.074;19.920;2023-02-18T04:47:32;9.00;99.90
19920;DHT22;10122;50.074;19.920;2023-02-18T04:49:58;9.00;99.90
19920;DHT22;10122;50.074;19.920;2023-02-18T04:52:24;9.00;99.90
19920;DHT22;10122;50.074;19.920;2023-02-18T04:54:50;9.00;99.90
19920;DHT22;10122;50.074;19.920;2023-02-18T04:57:15;9.00;99.90
19920;DHT22;10122;50.074;19.920;2023-02-18T04:59:41;8.90;99.90
19920;DHT22;10122;50.074;19.920;2023-02-18T05:02:07;8.90;99.90
19920;DHT22;10122;50.074;19.920;2023-02-18T05:04:32;8.90;99.90
19920;DHT22;10122;50.074;19.920;2023-02-18T05:06:58;8.90;99.90
19920;DHT22;10122;50.074;19.920;2023-02-18T05:09:24;8.90;99.90
19920;DHT22;10122;50.074;19.920;2023-02-18T05:11:50;8.80;99.90
19920;DHT22;10122;50.074;19.920;2023-02-18T05:14:16;8.90;99.90
19920;DHT22;10122;50.074;19.920;2023-02-18T05:16:42;8.90;99.90
19920;DHT22;10122;50.074;19.920;2023-02-18T05:19:09;8.90;99.90
19920;DHT22;10122;50.074;19.920;2023-02-18T05:21:35;8.90;99.90
19920;DHT22;10122;50.074;19.920;2023-02-18T05:24:00;8.90;99.90
19920;DHT22;10122;50.074;19.920;2023-02-18T05:26:26;8.90;99.90
19920;DHT22;10122;50.074;19.920;2023-02-18T05:28:52;8.90;99.90
19920;DHT22;10122;50.074;19.920;2023-02-18T05:31:17;8.90;99.90
19920;DHT22;10122;50.074;19.920;2023-02-18T05:33:43;8.90;99.90
19920;DHT22;10122;50.074;19.920;2023-02-18T05:36:09;8.80;99.90
19920;DHT22;10122;50.074;19.920;2023-02-18T05:38:34;8.80;99.90
19920;DHT22;10122;50.074;19.920;2023-02-18T05:41:00;8.80;99.90
19920;DHT22;10122;50.074;19.920;2023-02-18T05:43:26;8.80;99.90
19920;DHT22;10122;50.074;19.920;2023-02-18T05:45:51;8.80;99.90
19920;DHT22;10122;50.074;19.920;2023-02-18T05:48:17;8.80;99.90
19920;DHT22;10122;50.074;19.920;2023-02-18T05:50:43;8.80;99.90
19920;DHT22;10122;50.074;19.920;2023-02-18T05:53:09;8.70;99.90
19920;DHT22;10122;50.074;19.920;2023-02-18T05:55:34;8.70;99.90
19920;DHT22;10122;50.074;19.920;2023-02-18T05:58:03;8.70;99.90
19920;DHT22;10122;50.074;19.920;2023-02-18T06:00:29;8.70;99.90
19920;DHT22;10122;50.074;19.920;2023-02-18T06:02:57;8.70;99.90
19920;DHT22;10122;50.074;19.920;2023-02-18T06:05:24;8.70;99.90
19920;DHT22;10122;50.074;19.920;2023-02-18T06:07:49;8.70;99.90
19920;DHT22;10122;50.074;19.920;2023-02-18T06:10:15;8.70;99.90
19920;DHT22;10122;50.074;19.920;2023-02-18T06:12:43;8.80;99.90
19920;DHT22;10122;50.074;19.920;2023-02-18T06:15:08;8.80;99.90
19920;DHT22;10122;50.074;19.920;2023-02-18T06:17:34;8.70;99.90
19920;DHT22;10122;50.074;19.920;2023-02-18T06:20:00;8.80;99.90
19920;DHT22;10122;50.074;19.920;2023-02-18T06:22:25;8.80;99.90
19920;DHT22;10122;50.074;19.920;2023-02-18T06:24:51;8.90;99.90
19920;DHT22;10122;50.074;19.920;2023-02-18T06:27:17;8.90;99.90
19920;DHT22;10122;50.074;19.920;2023-02-18T06:29:42;8.90;99.90
19920;DHT22;10122;50.074;19.920;2023-02-18T06:32:08;9.00;99.90
19920;DHT22;10122;50.074;19.920;2023-02-18T06:34:34;9.00;99.90
19920;DHT22;10122;50.074;19.920;2023-02-18T06:36:59;9.10;99.90
19920;DHT22;10122;50.074;19.920;2023-02-18T06:39:25;9.10;99.90
19920;DHT22;10122;50.074;19.920;2023-02-18T06:41:51;9.10;99.90
19920;DHT22;10122;50.074;19.920;2023-02-18T06:44:16;9.10;99.90
19920;DHT22;10122;50.074;19.920;2023-02-18T06:46:43;9.10;99.90
19920;DHT22;10122;50.074;19.920;2023-02-18T06:49:09;9.10;99.90
19920;DHT22;10122;50.074;19.920;2023-02-18T06:51:34;9.10;99.90
19920;DHT22;10122;50.074;19.920;2023-02-18T06:54:00;9.10;99.90
19920;DHT22;10122;50.074;19.920;2023-02-18T06:56:26;9.20;99.90
19920;DHT22;10122;50.074;19.920;2023-02-18T06:58:51;9.20;99.90
19920;DHT22;10122;50.074;19.920;2023-02-18T07:01:17;9.20;99.90
19920;DHT22;10122;50.074;19.920;2023-02-18T07:03:43;9.30;99.90
19920;DHT22;10122;50.074;19.920;2023-02-18T07:06:08;9.30;99.90
19920;DHT22;10122;50.074;19.920;2023-02-18T07:08:34;9.30;99.90
19920;DHT22;10122;50.074;19.920;2023-02-18T07:11:02;9.40;99.90
19920;DHT22;10122;50.074;19.920;2023-02-18T07:13:28;9.40;99.90
19920;DHT22;10122;50.074;19.920;2023-02-18T07:15:53;9.50;99.90
19920;DHT22;10122;50.074;19.920;2023-02-18T07:18:19;9.50;99.90
19920;DHT22;10122;50.074;19.920;2023-02-18T07:20:45;9.50;99.90
19920;DHT22;10122;50.074;19.920;2023-02-18T07:23:11;9.60;99.90
19920;DHT22;10122;50.074;19.920;2023-02-18T07:25:37;9.60;99.90
19920;DHT22;10122;50.074;19.920;2023-02-18T07:28:02;9.70;99.90
19920;DHT22;10122;50.074;19.920;2023-02-18T07:30:28;9.70;99.90
19920;DHT22;10122;50.074;19.920;2023-02-18T07:32:54;9.70;99.90
19920;DHT22;10122;50.074;19.920;2023-02-18T07:35:19;9.80;99.90
19920;DHT22;10122;50.074;19.920;2023-02-18T07:37:46;9.80;99.90
19920;DHT22;10122;50.074;19.920;2023-02-18T07:40:15;9.80;99.90
19920;DHT22;10122;50.074;19.920;2023-02-18T07:42:41;9.80;99.90
19920;DHT22;10122;50.074;19.920;2023-02-18T07:45:07;9.70;99.90
19920;DHT22;10122;50.074;19.920;2023-02-18T07:47:33;9.80;99.90
19920;DHT22;10122;50.074;19.920;2023-02-18T07:49:59;9.70;99.90
19920;DHT22;10122;50.074;19.920;2023-02-18T07:52:25;9.70;99.90
19920;DHT22;10122;50.074;19.920;2023-02-18T07:54:50;9.80;99.50
19920;DHT22;10122;50.074;19.920;2023-02-18T07:57:16;9.70;99.90
19920;DHT22;10122;50.074;19.920;2023-02-18T07:59:42;9.70;99.90
19920;DHT22;10122;50.074;19.920;2023-02-18T08:02:20;9.70;99.90
19920;DHT22;10122;50.074;19.920;2023-02-18T08:04:47;9.80;99.90
19920;DHT22;10122;50.074;19.920;2023-02-18T08:07:14;9.80;99.90
19920;DHT22;10122;50.074;19.920;2023-02-18T08:09:40;9.80;99.60
19920;DHT22;10122;50.074;19.920;2023-02-18T08:12:06;9.80;99.50
19920;DHT22;10122;50.074;19.920;2023-02-18T08:14:31;9.90;99.30
19920;DHT22;10122;50.074;19.920;2023-02-18T08:16:57;9.90;99.40
19920;DHT22;10122;50.074;19.920;2023-02-18T08:19:23;9.90;99.00
19920;DHT22;10122;50.074;19.920;2023-02-18T08:21:49;9.90;99.10
19920;DHT22;10122;50.074;19.920;2023-02-18T08:24:15;9.90;98.90
19920;DHT22;10122;50.074;19.920;2023-02-18T08:26:40;9.90;98.80
19920;DHT22;10122;50.074;19.920;2023-02-18T08:31:50;10.00;98.70
19920;DHT22;10122;50.074;19.920;2023-02-18T08:34:18;10.00;98.60
19920;DHT22;10122;50.074;19.920;2023-02-18T08:36:44;10.00;98.20
19920;DHT22;10122;50.074;19.920;2023-02-18T08:39:09;10.10;98.00
19920;DHT22;10122;50.074;19.920;2023-02-18T08:41:35;10.10;98.10
19920;DHT22;10122;50.074;19.920;2023-02-18T08:44:01;10.20;97.90
19920;DHT22;10122;50.074;19.920;2023-02-18T08:46:26;10.20;97.40
19920;DHT22;10122;50.074;19.920;2023-02-18T08:48:52;10.20;96.90
19920;DHT22;10122;50.074;19.920;2023-02-18T08:51:20;10.30;97.00
19920;DHT22;10122;50.074;19.920;2023-02-18T08:53:47;10.30;96.80
19920;DHT22;10122;50.074;19.920;2023-02-18T08:56:14;10.30;97.00
19920;DHT22;10122;50.074;19.920;2023-02-18T08:58:40;10.40;97.10
19920;DHT22;10122;50.074;19.920;2023-02-18T09:01:07;10.50;97.40
19920;DHT22;10122;50.074;19.920;2023-02-18T09:03:34;10.50;96.80
19920;DHT22;10122;50.074;19.920;2023-02-18T09:06:00;10.50;96.50
19920;DHT22;10122;50.074;19.920;2023-02-18T09:08:26;10.50;96.50
19920;DHT22;10122;50.074;19.920;2023-02-18T09:11:00;10.60;96.40
19920;DHT22;10122;50.074;19.920;2023-02-18T09:13:26;10.60;96.70
19920;DHT22;10122;50.074;19.920;2023-02-18T09:16:00;10.60;96.20
19920;DHT22;10122;50.074;19.920;2023-02-18T09:18:26;10.60;96.10
19920;DHT22;10122;50.074;19.920;2023-02-18T09:20:55;10.60;96.20
19920;DHT22;10122;50.074;19.920;2023-02-18T09:23:22;10.60;95.90
19920;DHT22;10122;50.074;19.920;2023-02-18T09:25:48;10.60;96.00
19920;DHT22;10122;50.074;19.920;2023-02-18T09:28:14;10.60;95.50
19920;DHT22;10122;50.074;19.920;2023-02-18T09:30:39;10.60;95.60
19920;DHT22;10122;50.074;19.920;2023-02-18T09:33:05;10.60;95.60
19920;DHT22;10122;50.074;19.920;2023-02-18T09:35:31;10.60;95.80
19920;DHT22;10122;50.074;19.920;2023-02-18T09:37:56;10.70;97.00
19920;DHT22;10122;50.074;19.920;2023-02-18T09:40:31;10.70;96.80
19920;DHT22;10122;50.074;19.920;2023-02-18T09:42:58;10.70;95.90
19920;DHT22;10122;50.074;19.920;2023-02-18T09:45:25;10.60;95.70
19920;DHT22;10122;50.074;19.920;2023-02-18T09:47:51;10.60;96.00
19920;DHT22;10122;50.074;19.920;2023-02-18T09:50:23;10.60;96.00
19920;DHT22;10122;50.074;19.920;2023-02-18T09:52:51;10.60;96.50
19920;DHT22;10122;50.074;19.920;2023-02-18T09:55:24;10.70;96.50
19920;DHT22;10122;50.074;19.920;2023-02-18T09:57:58;10.70;96.50
19920;DHT22;10122;50.074;19.920;2023-02-18T10:00:32;10.80;96.60
19920;DHT22;10122;50.074;19.920;2023-02-18T10:03:23;10.80;96.80
19920;DHT22;10122;50.074;19.920;2023-02-18T10:06:00;10.70;96.80
19920;DHT22;10122;50.074;19.920;2023-02-18T10:08:31;10.70;97.10
19920;DHT22;10122;50.074;19.920;2023-02-18T10:10:58;10.70;97.50
19920;DHT22;10122;50.074;19.920;2023-02-18T10:13:29;10.70;97.70
19920;DHT22;10122;50.074;19.920;2023-02-18T10:15:56;10.80;98.00
19920;DHT22;10122;50.074;19.920;2023-02-18T10:18:31;10.80;98.30
19920;DHT22;10122;50.074;19.920;2023-02-18T10:21:19;10.90;98.40
19920;DHT22;10122;50.074;19.920;2023-02-18T10:24:12;11.00;98.40
19920;DHT22;10122;50.074;19.920;2023-02-18T10:26:41;11.00;98.50
19920;DHT22;10122;50.074;19.920;2023-02-18T10:29:18;11.10;98.50
19920;DHT22;10122;50.074;19.920;2023-02-18T10:32:24;11.10;98.50
19920;DHT22;10122;50.074;19.920;2023-02-18T10:34:58;11.20;98.40
19920;DHT22;10122;50.074;19.920;2023-02-18T10:47:05;11.20;97.90
19920;DHT22;10122;50.074;19.920;2023-02-18T10:49:41;11.20;98.00
19920;DHT22;10122;50.074;19.920;2023-02-18T10:52:16;11.10;97.90
19920;DHT22;10122;50.074;19.920;2023-02-18T10:55:03;11.10;98.20
19920;DHT22;10122;50.074;19.920;2023-02-18T10:57:32;11.10;98.30
19920;DHT22;10122;50.074;19.920;2023-02-18T11:00:14;11.10;98.60
19920;DHT22;10122;50.074;19.920;2023-02-18T11:02:41;11.10;99.00
19920;DHT22;10122;50.074;19.920;2023-02-18T11:05:22;11.00;99.40
19920;DHT22;10122;50.074;19.920;2023-02-18T11:07:52;11.00;99.80
19920;DHT22;10122;50.074;19.920;2023-02-18T11:10:24;11.00;99.90
19920;DHT22;10122;50.074;19.920;2023-02-18T11:15:22;11.20;99.90
19920;DHT22;10122;50.074;19.920;2023-02-18T11:17:51;11.20;99.90
19920;DHT22;10122;50.074;19.920;2023-02-18T11:22:48;11.30;99.90
19920;DHT22;10122;50.074;19.920;2023-02-18T11:25:29;11.50;99.90
19920;DHT22;10122;50.074;19.920;2023-02-18T11:30:52;11.60;99.90
19920;DHT22;10122;50.074;19.920;2023-02-18T11:33:22;11.60;99.90
19920;DHT22;10122;50.074;19.920;2023-02-18T11:35:55;11.50;99.90
19920;DHT22;10122;50.074;19.920;2023-02-18T11:38:28;11.40;99.90
19920;DHT22;10122;50.074;19.920;2023-02-18T11:41:15;11.30;99.90
19920;DHT22;10122;50.074;19.920;2023-02-18T11:43:49;11.30;99.90
19920;DHT22;10122;50.074;19.920;2023-02-18T11:46:21;11.20;99.90
19920;DHT22;10122;50.074;19.920;2023-02-18T11:48:48;11.20;99.90
19920;DHT22;10122;50.074;19.920;2023-02-18T11:54:00;11.10;99.90
19920;DHT22;10122;50.074;19.920;2023-02-18T11:56:32;11.10;99.90
19920;DHT22;10122;50.074;19.920;2023-02-18T11:58:59;11.00;99.90
19920;DHT22;10122;50.074;19.920;2023-02-18T12:01:44;11.00;99.90
19920;DHT22;10122;50.074;19.920;2023-02-18T12:04:47;11.00;99.90
19920;DHT22;10122;50.074;19.920;2023-02-18T12:07:19;11.00;99.90
19920;DHT22;10122;50.074;19.920;2023-02-18T12:10:34;11.00;99.90
19920;DHT22;10122;50.074;19.920;2023-02-18T12:12:50;11.00;99.90
19920;DHT22;10122;50.074;19.920;2023-02-18T12:15:25;11.00;99.90
19920;DHT22;10122;50.074;19.920;2023-02-18T12:23:41;10.80;99.90
19920;DHT22;10122;50.074;19.920;2023-02-18T12:35:31;10.60;99.90
19920;DHT22;10122;50.074;19.920;2023-02-18T12:38:27;10.50;99.90
19920;DHT22;10122;50.074;19.920;2023-02-18T12:41:26;10.40;99.90
19920;DHT22;10122;50.074;19.920;2023-02-18T12:50:43;10.30;99.90
19920;DHT22;10122;50.074;19.920;2023-02-18T13:02:03;10.40;99.90
19920;DHT22;10122;50.074;19.920;2023-02-18T13:07:18;10.50;99.90
19920;DHT22;10122;50.074;19.920;2023-02-18T13:12:50;10.40;99.90
19920;DHT22;10122;50.074;19.920;2023-02-18T13:15:35;10.40;99.90
19920;DHT22;10122;50.074;19.920;2023-02-18T13:18:07;10.50;99.90
19920;DHT22;10122;50.074;19.920;2023-02-18T13:23:03;10.90;99.90
19920;DHT22;10122;50.074;19.920;2023-02-18T13:25:36;10.90;99.90
19920;DHT22;10122;50.074;19.920;2023-02-18T13:31:31;10.50;99.90
19920;DHT22;10122;50.074;19.920;2023-02-18T13:39:26;10.30;99.90
19920;DHT22;10122;50.074;19.920;2023-02-18T13:42:22;10.20;99.90
19920;DHT22;10122;50.074;19.920;2023-02-18T13:50:27;10.00;99.90
19920;DHT22;10122;50.074;19.920;2023-02-18T13:55:49;9.90;99.90
19920;DHT22;10122;50.074;19.920;2023-02-18T14:03:50;9.80;99.90
19920;DHT22;10122;50.074;19.920;2023-02-18T14:08:45;9.80;99.90
19920;DHT22;10122;50.074;19.920;2023-02-18T14:13:40;9.90;99.90
19920;DHT22;10122;50.074;19.920;2023-02-18T14:16:07;9.70;99.90
19920;DHT22;10122;50.074;19.920;2023-02-18T14:18:54;9.70;99.90
19920;DHT22;10122;50.074;19.920;2023-02-18T14:21:34;9.70;99.90
19920;DHT22;10122;50.074;19.920;2023-02-18T14:24:02;9.60;99.90
19920;DHT22;10122;50.074;19.920;2023-02-18T14:26:32;9.50;99.90
19920;DHT22;10122;50.074;19.920;2023-02-18T14:29:27;9.40;99.90
19920;DHT22;10122;50.074;19.920;2023-02-18T14:32:02;9.30;99.90
19920;DHT22;10122;50.074;19.920;2023-02-18T14:34:44;9.20;99.90
19920;DHT22;10122;50.074;19.920;2023-02-18T14:42:42;9.10;99.90
19920;DHT22;10122;50.074;19.920;2023-02-18T14:50:37;8.80;99.90
19920;DHT22;10122;50.074;19.920;2023-02-18T14:53:10;8.80;99.90
19920;DHT22;10122;50.074;19.920;2023-02-18T14:55:42;8.70;99.90
19920;DHT22;10122;50.074;19.920;2023-02-18T15:00:43;8.60;99.90
19920;DHT22;10122;50.074;19.920;2023-02-18T15:03:15;8.60;99.90
19920;DHT22;10122;50.074;19.920;2023-02-18T15:05:41;8.70;99.90
19920;DHT22;10122;50.074;19.920;2023-02-18T15:08:17;8.70;99.90
19920;DHT22;10122;50.074;19.920;2023-02-18T15:10:47;8.70;99.90
19920;DHT22;10122;50.074;19.920;2023-02-18T15:13:27;8.70;99.90
19920;DHT22;10122;50.074;19.920;2023-02-18T15:16:01;8.70;99.90
19920;DHT22;10122;50.074;19.920;2023-02-18T15:21:03;8.70;99.90
19920;DHT22;10122;50.074;19.920;2023-02-18T15:23:30;8.70;99.90
19920;DHT22;10122;50.074;19.920;2023-02-18T15:25:56;8.70;99.90
19920;DHT22;10122;50.074;19.920;2023-02-18T15:28:27;8.70;99.90
19920;DHT22;10122;50.074;19.920;2023-02-18T15:30:57;8.70;99.90
19920;DHT22;10122;50.074;19.920;2023-02-18T15:33:23;8.70;99.90
19920;DHT22;10122;50.074;19.920;2023-02-18T15:35:49;8.70;99.90
19920;DHT22;10122;50.074;19.920;2023-02-18T15:38:17;8.70;99.90
19920;DHT22;10122;50.074;19.920;2023-02-18T15:40:46;8.60;99.90
19920;DHT22;10122;50.074;19.920;2023-02-18T15:43:19;8.60;99.90
19920;DHT22;10122;50.074;19.920;2023-02-18T15:45:46;8.60;99.90
19920;DHT22;10122;50.074;19.920;2023-02-18T15:48:42;8.60;99.90
19920;DHT22;10122;50.074;19.920;2023-02-18T15:51:19;8.60;99.90
19920;DHT22;10122;50.074;19.920;2023-02-18T15:53:49;8.60;99.90
19920;DHT22;10122;50.074;19.920;2023-02-18T15:56:28;8.50;99.90
19920;DHT22;10122;50.074;19.920;2023-02-18T16:02:17;8.50;99.90
19920;DHT22;10122;50.074;19.920;2023-02-18T16:04:47;8.50;99.90
19920;DHT22;10122;50.074;19.920;2023-02-18T16:07:29;8.50;99.90
19920;DHT22;10122;50.074;19.920;2023-02-18T16:10:20;8.60;99.90
19920;DHT22;10122;50.074;19.920;2023-02-18T16:12:50;8.60;99.90
19920;DHT22;10122;50.074;19.920;2023-02-18T16:15:29;8.50;99.90
19920;DHT22;10122;50.074;19.920;2023-02-18T16:17:55;8.50;99.90
19920;DHT22;10122;50.074;19.920;2023-02-18T16:22:53;8.50;99.90
19920;DHT22;10122;50.074;19.920;2023-02-18T16:25:24;8.60;99.90
19920;DHT22;10122;50.074;19.920;2023-02-18T16:28:12;8.50;99.90
19920;DHT22;10122;50.074;19.920;2023-02-18T16:30:35;8.50;99.90
19920;DHT22;10122;50.074;19.920;2023-02-18T16:33:02;8.40;99.90
19920;DHT22;10122;50.074;19.920;2023-02-18T16:35:29;8.50;99.90
19920;DHT22;10122;50.074;19.920;2023-02-18T16:37:56;8.50;99.90
19920;DHT22;10122;50.074;19.920;2023-02-18T16:43:00;8.40;99.90
19920;DHT22;10122;50.074;19.920;2023-02-18T16:45:37;8.40;99.90
19920;DHT22;10122;50.074;19.920;2023-02-18T16:48:04;8.40;99.90
19920;DHT22;10122;50.074;19.920;2023-02-18T16:50:31;8.40;99.90
19920;DHT22;10122;50.074;19.920;2023-02-18T16:52:58;8.40;99.90
19920;DHT22;10122;50.074;19.920;2023-02-18T16:55:26;8.40;99.90
19920;DHT22;10122;50.074;19.920;2023-02-18T16:57:53;8.50;99.90
19920;DHT22;10122;50.074;19.920;2023-02-18T17:00:19;8.40;99.90
19920;DHT22;10122;50.074;19.920;2023-02-18T17:02:51;8.50;99.90
19920;DHT22;10122;50.074;19.920;2023-02-18T17:05:20;8.50;99.90
19920;DHT22;10122;50.074;19.920;2023-02-18T17:07:46;8.50;99.90
19920;DHT22;10122;50.074;19.920;2023-02-18T17:10:12;8.50;99.90
19920;DHT22;10122;50.074;19.920;2023-02-18T17:12:38;8.50;99.90
19920;DHT22;10122;50.074;19.920;2023-02-18T17:15:33;8.60;99.90
19920;DHT22;10122;50.074;19.920;2023-02-18T17:17:59;8.60;99.90
19920;DHT22;10122;50.074;19.920;2023-02-18T17:20:26;8.60;99.90
19920;DHT22;10122;50.074;19.920;2023-02-18T17:22:52;8.60;99.90
19920;DHT22;10122;50.074;19.920;2023-02-18T17:25:39;8.70;99.90
19920;DHT22;10122;50.074;19.920;2023-02-18T17:28:05;8.70;99.90
19920;DHT22;10122;50.074;19.920;2023-02-18T17:30:36;8.70;99.90
19920;DHT22;10122;50.074;19.920;2023-02-18T17:33:03;8.70;99.90
19920;DHT22;10122;50.074;19.920;2023-02-18T17:35:29;8.80;99.90
19920;DHT22;10122;50.074;19.920;2023-02-18T17:37:55;8.80;99.90
19920;DHT22;10122;50.074;19.920;2023-02-18T17:40:23;8.90;99.90
19920;DHT22;10122;50.074;19.920;2023-02-18T17:42:49;9.00;99.90
19920;DHT22;10122;50.074;19.920;2023-02-18T17:45:42;9.10;99.90
19920;DHT22;10122;50.074;19.920;2023-02-18T17:48:06;9.20;99.90
19920;DHT22;10122;50.074;19.920;2023-02-18T17:50:32;9.30;99.90
19920;DHT22;10122;50.074;19.920;2023-02-18T17:52:58;9.40;99.90
19920;DHT22;10122;50.074;19.920;2023-02-18T17:55:26;9.40;99.90
19920;DHT22;10122;50.074;19.920;2023-02-18T17:57:53;9.50;99.90
19920;DHT22;10122;50.074;19.920;2023-02-18T18:00:24;9.50;99.90
19920;DHT22;10122;50.074;19.920;2023-02-18T18:02:50;9.60;99.90
19920;DHT22;10122;50.074;19.920;2023-02-18T18:05:22;9.60;99.90
19920;DHT22;10122;50.074;19.920;2023-02-18T18:07:49;9.60;99.90
19920;DHT22;10122;50.074;19.920;2023-02-18T18:10:17;9.60;99.90
19920;DHT22;10122;50.074;19.920;2023-02-18T18:12:43;9.60;99.90
19920;DHT22;10122;50.074;19.920;2023-02-18T18:15:23;9.70;99.90
19920;DHT22;10122;50.074;19.920;2023-02-18T18:17:49;9.70;99.90